Aviation Digital Data Service (ADDS)

Output produced by METARs form (0307 UTC 18 August 2017)
found at http://www.aviationweather.gov/adds/metars/
 
MGGT 180300Z 36014KT 9999 FEW014 20/17 Q1026 A3030
MGGT 172300Z 1800/1824 36014KT 9999 SCT018 TX27/1820Z TN16/1812Z 
     PROB30 
     TEMPO 1800/1804 04010KT 8000 TSRA FEW025CB 
     TEMPO 1806/1815 BKN014 
     BECMG 1815/1817 FEW018 
     TEMPO 1820/1824 SCT020TCU
       
MGPB 180300Z 09010KT 8000 -TSRA BKN016 FEW025CB OVC090 27/24 Q1014 A2994 CB/TS/LTNG/E
MGPB 172300Z 1800/1824 00000KT 9999 SCT016 TX33/1820Z TN22/1812Z 
     PROB30 
     TEMPO 1800/1804 8000 TSRA FEW025CB 
     PROB30 
     TEMPO 1804/1812 8000 RADZ BKN016 
     BECMG 1815/1817 06008KT FEW018 
     TEMPO 1820/1824 SCT020TCU
       
MGRT 180000Z 04004KT 9999 SCT018 FEW025CB BKN080 25/22 Q1014 A2994 CB NE/ENE/SE VOL. STA. MARIA Y SANTIAGUITO EN ACTIVIDAD
MGSJ 180000Z 00000KT 9999 FEW022TCU 32/25 Q1011 A2985 FEW200 TCU NNE/NNW
MGSJ 172300Z 1800/1824 00000KT 9999 FEW016 TX34/1820Z TN23/1812Z 
     PROB30 
     TEMPO 1800/1803 8000 VCTSRA FEW025CB 
     PROB30 
     TEMPO 1803/1810 TS FEW025CB 
     BECMG 1815/1817 18008KT FEW020 
     TEMPO 1820/1824 22012KT